Terminal Aerodrome Forecast
Issued by NWS Albany, NY

Home | Current Version | Previous Version | Text Only | Print | Product List | Glossary On
Versions: 1 2 3 4 5 6 7 8 9 10 11 12 13 14
000
FTUS41 KALY 301100
TAFGFL
TAF
KGFL 301132Z 3012/3112 25005KT P6SM OVC070
     FM301600 29005KT P6SM BKN050
     FM302100 32006KT P6SM SCT050
     FM310400 00000KT P6SM BKN250=

USA.gov is the U.S. government's official web portal to all federal, state and local government web resources and services.